createdAt,value
2023-09-20T00:01:52.879Z,15.23
2023-09-20T00:04:20.937Z,15.25
2023-09-20T00:06:47.457Z,15.28
2023-09-20T00:09:15.815Z,15.29
2023-09-20T00:11:44.481Z,15.18
2023-09-20T00:14:11.433Z,15.10
2023-09-20T00:16:37.920Z,15.03
2023-09-20T00:19:04.466Z,14.94
2023-09-20T00:21:30.964Z,14.93
2023-09-20T00:23:57.453Z,14.93
2023-09-20T00:26:24.617Z,14.93
2023-09-20T00:28:51.232Z,14.90
2023-09-20T00:31:17.890Z,14.84
2023-09-20T00:33:45.312Z,14.85
2023-09-20T00:36:21.616Z,14.71
2023-09-20T00:38:49.024Z,14.72
2023-09-20T00:41:16.445Z,14.63
2023-09-20T00:43:43.093Z,14.59
2023-09-20T00:46:10.810Z,14.63
2023-09-20T00:48:40.180Z,14.63
2023-09-20T00:51:07.624Z,14.67
2023-09-20T00:53:36.612Z,14.66
2023-09-20T00:56:06.078Z,14.59
2023-09-20T00:58:35.638Z,14.64
2023-09-20T01:01:05.175Z,14.56
2023-09-20T01:03:36.773Z,14.60
2023-09-20T01:06:09.891Z,14.52
2023-09-20T01:08:36.451Z,14.38
2023-09-20T01:11:03.035Z,14.33
2023-09-20T01:13:29.620Z,14.27
2023-09-20T01:15:56.209Z,14.25
2023-09-20T01:18:22.835Z,14.15
2023-09-20T01:20:49.443Z,14.13
2023-09-20T01:23:15.968Z,14.18
2023-09-20T01:25:44.574Z,14.17
2023-09-20T01:28:12.048Z,14.22
2023-09-20T01:30:40.436Z,14.31
2023-09-20T01:33:08.499Z,14.40
2023-09-20T01:35:36.097Z,14.55
2023-09-20T01:38:07.804Z,14.57
2023-09-20T01:40:35.839Z,14.47
2023-09-20T01:43:07.707Z,14.39
2023-09-20T01:45:38.294Z,14.37
2023-09-20T01:48:11.942Z,14.33
2023-09-20T01:50:39.510Z,14.33
2023-09-20T01:53:09.595Z,14.31
2023-09-20T01:55:38.408Z,14.32
2023-09-20T01:58:08.335Z,14.25
2023-09-20T02:00:41.327Z,14.28
2023-09-20T02:03:17.652Z,14.23
2023-09-20T02:05:45.763Z,14.28
2023-09-20T02:08:12.352Z,14.29
2023-09-20T02:10:39.497Z,14.29
2023-09-20T02:13:07.250Z,14.20
2023-09-20T02:15:41.973Z,14.31
2023-09-20T02:18:10.439Z,14.42
2023-09-20T02:20:40.586Z,14.51
2023-09-20T02:23:13.872Z,14.43
2023-09-20T02:25:42.210Z,14.39
2023-09-20T02:28:09.550Z,14.35
2023-09-20T02:30:39.491Z,14.29
2023-09-20T02:33:08.615Z,14.28
2023-09-20T02:35:37.868Z,14.28
2023-09-20T02:38:07.961Z,14.20
2023-09-20T02:40:36.356Z,14.14
2023-09-20T02:43:05.278Z,14.13
2023-09-20T02:45:34.575Z,14.09
2023-09-20T02:48:05.951Z,14.00
2023-09-20T02:50:33.167Z,14.08
2023-09-20T02:53:00.138Z,14.13
2023-09-20T02:55:28.240Z,14.12
2023-09-20T02:57:56.082Z,14.15
2023-09-20T03:00:31.263Z,14.17
2023-09-20T03:03:02.369Z,14.10
2023-09-20T03:05:34.288Z,14.08
2023-09-20T03:08:12.751Z,14.01
2023-09-20T03:10:42.732Z,14.00
2023-09-20T03:13:18.365Z,13.95
2023-09-20T03:15:46.075Z,13.93
2023-09-20T03:18:14.710Z,13.95
2023-09-20T03:20:45.034Z,13.94
2023-09-20T03:23:11.968Z,13.98
2023-09-20T03:25:38.513Z,13.96
2023-09-20T03:28:08.973Z,14.04
2023-09-20T03:30:37.625Z,13.97
2023-09-20T03:33:05.665Z,13.98
2023-09-20T03:35:33.581Z,13.98
2023-09-20T03:38:00.137Z,14.07
2023-09-20T03:40:29.434Z,14.08
2023-09-20T03:42:55.981Z,14.06
2023-09-20T03:45:25.137Z,14.07
2023-09-20T03:47:58.067Z,14.05
2023-09-20T03:50:25.374Z,14.05
2023-09-20T03:52:53.332Z,14.00
2023-09-20T03:55:20.911Z,14.02
2023-09-20T03:57:47.476Z,14.13
2023-09-20T04:00:18.032Z,14.11
2023-09-20T04:02:49.435Z,14.16
2023-09-20T04:05:26.895Z,14.11
2023-09-20T04:08:01.845Z,14.06
2023-09-20T04:10:28.928Z,14.03
2023-09-20T04:12:55.780Z,14.04
2023-09-20T04:15:22.280Z,14.12
2023-09-20T04:17:49.711Z,14.05
2023-09-20T04:20:16.422Z,14.02
2023-09-20T04:22:42.927Z,14.04
2023-09-20T04:25:12.270Z,14.05
2023-09-20T04:27:39.279Z,14.07
2023-09-20T04:30:09.069Z,14.07
2023-09-20T04:32:37.123Z,14.12
2023-09-20T04:35:05.550Z,14.10
2023-09-20T04:37:32.392Z,14.15
2023-09-20T04:39:58.922Z,14.19
2023-09-20T04:42:25.384Z,14.19
2023-09-20T04:44:52.471Z,14.14
2023-09-20T04:47:19.490Z,14.17
2023-09-20T04:49:46.386Z,14.17
2023-09-20T04:52:16.876Z,14.22
2023-09-20T04:54:45.374Z,14.26
2023-09-20T04:57:14.238Z,14.31
2023-09-20T04:59:43.597Z,14.35
2023-09-20T05:02:10.649Z,14.40
2023-09-20T05:04:37.556Z,14.51
2023-09-20T05:07:07.913Z,14.59
2023-09-20T05:09:35.701Z,14.63
2023-09-20T05:12:03.755Z,14.82
2023-09-20T05:14:30.753Z,14.90
2023-09-20T05:16:57.350Z,14.91
2023-09-20T05:19:26.749Z,14.88
2023-09-20T05:21:53.353Z,15.01
2023-09-20T05:24:19.932Z,15.12
2023-09-20T05:26:46.461Z,15.17
2023-09-20T05:29:13.038Z,15.23
2023-09-20T05:31:39.650Z,15.32
2023-09-20T05:34:06.657Z,15.41
2023-09-20T05:36:33.905Z,15.62
2023-09-20T05:39:00.546Z,15.76
2023-09-20T05:41:29.352Z,15.76
2023-09-20T05:43:56.256Z,15.81
2023-09-20T05:46:25.945Z,15.76
2023-09-20T05:48:53.687Z,15.82
2023-09-20T05:51:21.564Z,15.96
2023-09-20T05:53:52.119Z,16.15
2023-09-20T05:56:20.122Z,16.36
2023-09-20T05:58:47.004Z,16.57
2023-09-20T06:01:19.174Z,16.69
2023-09-20T06:03:47.838Z,16.72
2023-09-20T06:06:15.233Z,16.81
2023-09-20T06:08:43.678Z,16.98
2023-09-20T06:11:10.725Z,17.12
2023-09-20T06:13:39.071Z,17.38
2023-09-20T06:16:08.461Z,17.66
2023-09-20T06:18:37.685Z,17.74
2023-09-20T06:21:05.003Z,17.78
2023-09-20T06:23:32.896Z,18.05
2023-09-20T06:26:05.506Z,18.23
2023-09-20T06:28:32.671Z,18.35
2023-09-20T06:31:00.455Z,18.26
2023-09-20T06:33:27.117Z,18.48
2023-09-20T06:35:56.547Z,18.62
2023-09-20T06:38:25.224Z,18.68
2023-09-20T06:40:53.906Z,18.70
2023-09-20T06:43:21.006Z,18.74
2023-09-20T06:45:51.843Z,18.89
2023-09-20T06:48:26.527Z,18.81
2023-09-20T06:50:55.561Z,18.82
2023-09-20T06:53:25.039Z,18.82
2023-09-20T06:55:52.005Z,18.90
2023-09-20T06:58:20.768Z,19.01
2023-09-20T07:00:48.412Z,19.08
2023-09-20T07:03:15.382Z,19.18
2023-09-20T07:05:42.283Z,19.15
2023-09-20T07:08:09.581Z,19.29
2023-09-20T07:10:38.088Z,19.37
2023-09-20T07:13:07.376Z,19.42
2023-09-20T07:15:36.607Z,19.41
2023-09-20T07:18:13.538Z,19.52
2023-09-20T07:20:45.341Z,19.73
2023-09-20T07:23:16.723Z,19.91
2023-09-20T07:25:44.421Z,20.20
2023-09-20T07:28:11.370Z,20.18
2023-09-20T07:30:46.265Z,20.17
2023-09-20T07:33:25.576Z,20.25
2023-09-20T07:36:00.356Z,20.34
2023-09-20T07:38:29.904Z,20.39
2023-09-20T07:41:09.814Z,20.72
2023-09-20T07:43:40.183Z,20.70
2023-09-20T07:46:07.301Z,20.88
2023-09-20T07:48:34.871Z,20.97
2023-09-20T07:51:05.469Z,21.07
2023-09-20T07:53:32.401Z,21.30
2023-09-20T07:55:58.870Z,21.34
2023-09-20T07:58:25.570Z,21.52
2023-09-20T08:00:53.819Z,21.67
2023-09-20T08:03:22.165Z,21.87
2023-09-20T08:05:54.447Z,21.95
2023-09-20T08:08:24.150Z,21.97
2023-09-20T08:11:06.736Z,22.20
2023-09-20T08:13:37.395Z,22.08
2023-09-20T08:16:10.022Z,22.29
2023-09-20T08:18:56.498Z,22.45
2023-09-20T08:21:23.259Z,22.48
2023-09-20T08:24:08.707Z,22.54
2023-09-20T08:26:54.019Z,22.53
2023-09-20T08:29:38.827Z,22.69
2023-09-20T08:32:23.625Z,22.71
2023-09-20T08:35:08.535Z,22.45
2023-09-20T08:37:53.695Z,22.70
2023-09-20T08:40:39.641Z,22.72
2023-09-20T08:43:25.482Z,22.90
2023-09-20T08:46:11.181Z,22.85
2023-09-20T08:49:01.129Z,23.14
2023-09-20T08:52:16.663Z,23.40
2023-09-20T08:55:02.660Z,23.27
2023-09-20T08:57:48.525Z,23.42
2023-09-20T09:00:29.323Z,23.67
2023-09-20T09:02:59.471Z,23.60
2023-09-20T09:05:29.380Z,23.70
2023-09-20T09:07:58.308Z,23.65
2023-09-20T09:10:25.491Z,23.84
2023-09-20T09:12:52.197Z,24.20
2023-09-20T09:15:19.166Z,24.08
2023-09-20T09:17:47.546Z,23.84
2023-09-20T09:20:22.322Z,24.02
2023-09-20T09:22:50.632Z,24.25
2023-09-20T09:25:19.791Z,24.40
2023-09-20T09:27:46.616Z,24.49
2023-09-20T09:30:15.700Z,24.73
2023-09-20T09:32:51.266Z,24.50
2023-09-20T09:35:27.741Z,24.92
2023-09-20T09:38:05.879Z,24.84
2023-09-20T09:40:32.565Z,24.87
2023-09-20T09:43:12.886Z,24.89
2023-09-20T09:45:39.738Z,24.82
2023-09-20T09:48:08.406Z,25.13
2023-09-20T09:50:39.730Z,25.25
2023-09-20T09:53:07.775Z,25.49
2023-09-20T09:55:34.850Z,25.52
2023-09-20T09:58:05.409Z,25.57
2023-09-20T10:00:34.438Z,25.88
2023-09-20T10:03:12.532Z,26.04
2023-09-20T10:05:43.902Z,25.86
2023-09-20T10:08:14.002Z,25.74
2023-09-20T10:10:42.858Z,26.12
2023-09-20T10:13:13.653Z,25.94
2023-09-20T10:15:40.641Z,25.67
2023-09-20T10:18:07.528Z,25.58
2023-09-20T10:21:06.216Z,25.55
2023-09-20T10:23:36.406Z,26.00
2023-09-20T10:26:03.192Z,25.90
2023-09-20T10:28:39.497Z,25.68
2023-09-20T10:31:06.270Z,25.92
2023-09-20T10:33:59.025Z,25.84
2023-09-20T10:36:28.456Z,25.89
2023-09-20T10:39:21.180Z,26.19
2023-09-20T10:41:53.651Z,26.52
2023-09-20T10:44:32.156Z,26.38
2023-09-20T10:47:00.056Z,26.41
2023-09-20T10:49:49.838Z,26.61
2023-09-20T10:52:34.587Z,26.60
2023-09-20T10:55:25.631Z,26.54
2023-09-20T10:57:53.081Z,26.73
2023-09-20T11:00:26.625Z,26.71
2023-09-20T11:02:53.838Z,26.88
2023-09-20T11:05:21.081Z,26.54
2023-09-20T11:07:48.109Z,26.20
2023-09-20T11:10:18.364Z,26.14
2023-09-20T11:12:45.563Z,26.60
2023-09-20T11:15:14.480Z,26.65
2023-09-20T11:17:41.155Z,26.49
2023-09-20T11:20:09.120Z,26.94
2023-09-20T11:22:37.232Z,27.01
2023-09-20T11:25:05.872Z,27.20
2023-09-20T11:27:38.168Z,27.23
2023-09-20T11:30:09.989Z,27.51
2023-09-20T11:32:40.037Z,27.49
2023-09-20T11:35:08.250Z,27.45
2023-09-20T11:37:36.722Z,27.63
2023-09-20T11:40:06.008Z,27.21
2023-09-20T11:42:35.607Z,27.25
2023-09-20T11:45:43.715Z,27.35
2023-09-20T11:47:59.458Z,27.36
2023-09-20T11:50:26.229Z,27.65
2023-09-20T11:52:54.585Z,27.98
2023-09-20T11:55:23.162Z,27.73
2023-09-20T11:57:49.998Z,27.67
2023-09-20T12:00:18.399Z,27.59
2023-09-20T12:02:46.116Z,27.86
2023-09-20T12:05:12.952Z,27.83
2023-09-20T12:07:39.668Z,27.64
2023-09-20T12:10:08.452Z,27.76
2023-09-20T12:12:35.641Z,27.54
2023-09-20T12:15:02.945Z,28.00
2023-09-20T12:17:30.688Z,28.06
2023-09-20T12:19:57.297Z,28.14
2023-09-20T12:22:23.796Z,28.28
2023-09-20T12:24:50.297Z,28.30
2023-09-20T12:27:18.759Z,28.02
2023-09-20T12:29:45.383Z,27.95
2023-09-20T12:32:12.403Z,28.02
2023-09-20T12:34:39.042Z,28.17
2023-09-20T12:37:06.626Z,28.08
2023-09-20T12:39:39.745Z,28.01
2023-09-20T12:42:08.525Z,28.06
2023-09-20T12:44:35.232Z,28.26
2023-09-20T12:47:01.770Z,28.28
2023-09-20T12:49:28.245Z,28.11
2023-09-20T12:51:54.863Z,28.09
2023-09-20T12:54:21.409Z,28.07
2023-09-20T12:56:48.403Z,28.08
2023-09-20T12:59:15.084Z,28.12
2023-09-20T13:01:41.720Z,28.35
2023-09-20T13:04:08.622Z,28.18
2023-09-20T13:06:37.810Z,28.40
2023-09-20T13:09:04.554Z,28.38
2023-09-20T13:11:31.097Z,28.36
2023-09-20T13:13:57.689Z,28.29
2023-09-20T13:16:25.934Z,28.14
2023-09-20T13:18:52.544Z,28.00
2023-09-20T13:21:19.036Z,28.08
2023-09-20T13:23:45.816Z,28.31
2023-09-20T13:26:12.908Z,28.55
2023-09-20T13:28:39.794Z,28.35
2023-09-20T13:31:08.328Z,28.30
2023-09-20T13:33:35.102Z,28.44
2023-09-20T13:36:01.759Z,28.15
2023-09-20T13:38:28.475Z,28.38
2023-09-20T13:40:56.434Z,28.53
2023-09-20T13:43:23.110Z,28.49
2023-09-20T13:45:50.079Z,28.53
2023-09-20T13:48:16.806Z,28.64
2023-09-20T13:50:44.174Z,28.57
2023-09-20T13:53:11.279Z,28.42
2023-09-20T13:55:37.979Z,28.51
2023-09-20T13:58:04.688Z,28.62
2023-09-20T14:00:31.370Z,28.60
2023-09-20T14:02:58.829Z,28.82
2023-09-20T14:05:27.639Z,28.99
2023-09-20T14:07:57.220Z,28.85
2023-09-20T14:10:25.649Z,28.89
2023-09-20T14:12:52.674Z,28.94
2023-09-20T14:15:23.099Z,28.47
2023-09-20T14:17:53.012Z,28.06
2023-09-20T14:20:22.207Z,28.05
2023-09-20T14:22:54.268Z,28.07
2023-09-20T14:25:25.453Z,28.34
2023-09-20T14:27:52.903Z,28.53
2023-09-20T14:30:20.263Z,28.83
2023-09-20T14:32:49.199Z,28.58
2023-09-20T14:35:16.833Z,28.52
2023-09-20T14:37:48.937Z,28.77
2023-09-20T14:40:25.118Z,28.72
2023-09-20T14:42:57.549Z,28.36
2023-09-20T14:45:30.589Z,28.45
2023-09-20T14:48:00.687Z,28.05
2023-09-20T14:50:27.653Z,27.84
2023-09-20T14:52:54.994Z,27.75
2023-09-20T14:55:22.005Z,28.14
2023-09-20T14:57:52.998Z,28.47
2023-09-20T15:00:20.562Z,28.51
2023-09-20T15:02:48.266Z,28.01
2023-09-20T15:05:15.864Z,27.98
2023-09-20T15:07:49.568Z,28.41
2023-09-20T15:10:18.039Z,28.65
2023-09-20T15:12:49.589Z,28.30
2023-09-20T15:15:16.701Z,28.38
2023-09-20T15:17:44.668Z,28.34
2023-09-20T15:20:12.181Z,28.17
2023-09-20T15:22:38.827Z,27.20
2023-09-20T15:25:05.977Z,26.83
2023-09-20T15:27:32.711Z,26.76
2023-09-20T15:30:00.197Z,26.76
2023-09-20T15:32:27.552Z,26.63
2023-09-20T15:34:58.450Z,26.32
2023-09-20T15:37:27.451Z,26.27
2023-09-20T15:39:55.162Z,26.11
2023-09-20T15:42:23.146Z,25.83
2023-09-20T15:44:51.425Z,25.88
2023-09-20T15:47:18.994Z,25.77
2023-09-20T15:49:46.695Z,25.56
2023-09-20T15:52:15.600Z,25.37
2023-09-20T15:54:45.267Z,25.25
2023-09-20T15:57:13.027Z,25.22
2023-09-20T15:59:40.640Z,24.91
2023-09-20T16:02:08.098Z,24.89
2023-09-20T16:04:35.209Z,24.72
2023-09-20T16:07:04.082Z,24.56
2023-09-20T16:09:30.610Z,24.41
2023-09-20T16:11:57.365Z,24.35
2023-09-20T16:14:24.519Z,24.30
2023-09-20T16:16:51.268Z,24.12
2023-09-20T16:19:17.817Z,24.00
2023-09-20T16:21:44.391Z,23.91
2023-09-20T16:24:11.010Z,23.80
2023-09-20T16:26:38.920Z,23.62
2023-09-20T16:29:05.515Z,23.33
2023-09-20T16:31:32.580Z,23.23
2023-09-20T16:33:59.363Z,23.11
2023-09-20T16:36:26.216Z,23.04
2023-09-20T16:38:52.948Z,22.92
2023-09-20T16:41:19.641Z,22.89
2023-09-20T16:43:46.303Z,22.70
2023-09-20T16:46:12.841Z,22.59
2023-09-20T16:48:39.486Z,22.52
2023-09-20T16:51:07.043Z,22.38
2023-09-20T16:53:38.220Z,22.25
2023-09-20T16:56:05.561Z,22.14
2023-09-20T16:58:34.090Z,21.98
2023-09-20T17:01:00.703Z,21.91
2023-09-20T17:03:27.376Z,21.73
2023-09-20T17:05:54.050Z,21.64
2023-09-20T17:08:20.589Z,21.52
2023-09-20T17:10:47.256Z,21.39
2023-09-20T17:13:13.862Z,21.24
2023-09-20T17:15:40.312Z,21.10
2023-09-20T17:18:07.707Z,21.07
2023-09-20T17:20:34.542Z,21.01
2023-09-20T17:23:01.070Z,20.94
2023-09-20T17:25:27.735Z,20.86
2023-09-20T17:27:54.316Z,20.76
2023-09-20T17:30:22.081Z,20.68
2023-09-20T17:32:50.093Z,20.57
2023-09-20T17:35:17.427Z,20.44
2023-09-20T17:37:44.337Z,20.35
2023-09-20T17:40:11.689Z,20.40
2023-09-20T17:42:38.954Z,20.38
2023-09-20T17:45:06.646Z,20.25
2023-09-20T17:47:35.853Z,20.15
2023-09-20T17:50:02.583Z,20.06
2023-09-20T17:52:29.794Z,19.99
2023-09-20T17:54:56.308Z,20.02
2023-09-20T17:57:24.835Z,19.90
2023-09-20T17:59:52.536Z,19.84
2023-09-20T18:02:19.400Z,19.74
2023-09-20T18:04:47.328Z,19.67
2023-09-20T18:07:14.020Z,19.62
2023-09-20T18:09:40.527Z,19.55
2023-09-20T18:12:07.445Z,19.51
2023-09-20T18:14:33.989Z,19.44
2023-09-20T18:17:00.609Z,19.43
2023-09-20T18:19:27.884Z,19.41
2023-09-20T18:21:54.750Z,19.41
2023-09-20T18:24:21.342Z,19.33
2023-09-20T18:26:49.836Z,19.22
2023-09-20T18:29:17.601Z,19.18
2023-09-20T18:31:44.624Z,19.20
2023-09-20T18:34:11.229Z,19.05
2023-09-20T18:36:37.785Z,19.01
2023-09-20T18:39:04.671Z,18.96
2023-09-20T18:41:31.462Z,18.93
2023-09-20T18:43:59.945Z,18.89
2023-09-20T18:46:27.361Z,18.81
2023-09-20T18:48:54.715Z,18.70
2023-09-20T18:51:21.500Z,18.74
2023-09-20T18:53:48.563Z,18.72
2023-09-20T18:56:16.444Z,18.67
2023-09-20T18:58:43.518Z,18.63
2023-09-20T19:01:22.770Z,18.52
2023-09-20T19:03:50.180Z,18.53
2023-09-20T19:06:21.538Z,18.43
2023-09-20T19:08:50.813Z,18.44
2023-09-20T19:11:19.309Z,18.46
2023-09-20T19:13:46.880Z,18.36
2023-09-20T19:16:16.161Z,18.38
2023-09-20T19:18:44.464Z,18.43
2023-09-20T19:21:12.418Z,18.39
2023-09-20T19:23:39.075Z,18.39
2023-09-20T19:26:06.236Z,18.43
2023-09-20T19:28:33.282Z,18.41
2023-09-20T19:31:05.251Z,18.38
2023-09-20T19:33:32.152Z,18.33
2023-09-20T19:36:00.776Z,18.34
2023-09-20T19:38:27.483Z,18.21
2023-09-20T19:40:54.315Z,18.22
2023-09-20T19:43:20.835Z,18.27
2023-09-20T19:45:47.352Z,18.24
2023-09-20T19:48:14.211Z,18.24
2023-09-20T19:50:44.033Z,18.29
2023-09-20T19:53:13.292Z,18.28
2023-09-20T19:55:41.053Z,18.18
2023-09-20T19:58:09.555Z,18.24
2023-09-20T20:00:39.407Z,18.09
2023-09-20T20:03:07.965Z,18.16
2023-09-20T20:05:34.625Z,18.15
2023-09-20T20:08:07.310Z,18.17
2023-09-20T20:10:41.374Z,18.24
2023-09-20T20:13:08.148Z,18.33
2023-09-20T20:15:34.790Z,18.31
2023-09-20T20:18:02.877Z,18.32
2023-09-20T20:20:31.987Z,18.37
2023-09-20T20:23:00.476Z,18.44
2023-09-20T20:25:39.638Z,18.52
2023-09-20T20:28:13.102Z,18.63
2023-09-20T20:30:40.430Z,18.83
2023-09-20T20:33:06.998Z,18.91
2023-09-20T20:35:33.720Z,18.96
2023-09-20T20:38:00.282Z,19.05
2023-09-20T20:40:26.872Z,19.11
2023-09-20T20:42:54.217Z,19.20
2023-09-20T20:45:21.412Z,19.26
2023-09-20T20:47:50.914Z,19.26
2023-09-20T20:50:26.264Z,19.36
2023-09-20T20:52:54.180Z,19.30
2023-09-20T20:55:23.854Z,19.24
2023-09-20T20:57:51.182Z,19.41
2023-09-20T21:00:25.912Z,19.56
2023-09-20T21:02:54.121Z,19.69
2023-09-20T21:05:25.520Z,19.69
2023-09-20T21:07:53.194Z,19.86
2023-09-20T21:10:20.788Z,19.90
2023-09-20T21:12:49.439Z,20.06
2023-09-20T21:15:17.019Z,20.17
2023-09-20T21:17:45.029Z,20.29
2023-09-20T21:20:21.438Z,20.23
2023-09-20T21:22:53.507Z,20.30
2023-09-20T21:25:24.329Z,20.28
2023-09-20T21:27:58.380Z,20.24
2023-09-20T21:30:26.835Z,20.27
2023-09-20T21:32:56.456Z,20.28
2023-09-20T21:35:25.734Z,20.23
2023-09-20T21:37:56.129Z,20.23
2023-09-20T21:40:23.912Z,20.26
2023-09-20T21:42:51.389Z,20.12
2023-09-20T21:45:19.639Z,20.28
2023-09-20T21:47:56.485Z,20.19
2023-09-20T21:50:24.928Z,20.09
2023-09-20T21:52:55.851Z,20.16
2023-09-20T21:55:23.866Z,20.17
2023-09-20T21:57:53.740Z,19.89
2023-09-20T22:00:21.273Z,20.01
2023-09-20T22:02:53.704Z,19.98
2023-09-20T22:05:24.280Z,20.02
2023-09-20T22:07:55.093Z,19.82
2023-09-20T22:10:39.075Z,19.86
2023-09-20T22:13:08.236Z,19.92
2023-09-20T22:15:36.632Z,19.90
2023-09-20T22:18:11.401Z,19.88
2023-09-20T22:20:39.380Z,19.99
2023-09-20T22:23:09.129Z,20.08
2023-09-20T22:25:35.660Z,20.11
2023-09-20T22:28:02.221Z,19.99
2023-09-20T22:30:28.821Z,19.83
2023-09-20T22:32:55.415Z,19.96
2023-09-20T22:35:22.280Z,19.78
2023-09-20T22:37:50.838Z,19.95
2023-09-20T22:40:18.984Z,20.01
2023-09-20T22:42:51.083Z,19.96
2023-09-20T22:45:23.511Z,20.00
2023-09-20T22:47:54.979Z,19.92
2023-09-20T22:50:24.566Z,19.83
2023-09-20T22:52:53.908Z,19.76
2023-09-20T22:55:21.458Z,19.73
2023-09-20T22:57:48.313Z,19.78
2023-09-20T23:00:22.775Z,19.77
2023-09-20T23:02:50.784Z,19.62
2023-09-20T23:05:19.589Z,19.51
2023-09-20T23:07:54.936Z,19.31
2023-09-20T23:10:25.009Z,19.01
2023-09-20T23:12:53.693Z,18.82
2023-09-20T23:15:21.714Z,18.74
2023-09-20T23:17:52.304Z,18.61
2023-09-20T23:20:38.651Z,18.49
2023-09-20T23:23:06.521Z,18.45
2023-09-20T23:25:37.399Z,18.33
2023-09-20T23:28:12.747Z,18.28
2023-09-20T23:30:41.418Z,18.15
2023-09-20T23:33:09.920Z,18.18
2023-09-20T23:35:40.557Z,18.11
2023-09-20T23:38:14.254Z,17.96
2023-09-20T23:40:44.159Z,17.95
2023-09-20T23:43:12.143Z,18.04
2023-09-20T23:45:38.665Z,18.00
2023-09-20T23:48:05.380Z,18.07
2023-09-20T23:50:31.955Z,18.20
2023-09-20T23:52:58.443Z,18.24
2023-09-20T23:55:25.106Z,18.25
2023-09-20T23:57:52.148Z,18.27
